Wirtz, VA (24184)

11:45 AM EDT on August 30, 2015 (GMT -0400)
SML @ Burnt Chimney | | Change Station
CLOSE
Current Station
Personal Weather Station
Location: Wirtz, VA
Elevation: 810 ft
Nearby Weather Stations

Elev 810 ft 37.06 °N, 79.74 °W | Updated 42 seconds ago

Mostly Cloudy
Mostly Cloudy
77.1 °F
Feels Like 79 °F
N
0.0
Wind Variable Wind from WSW
Gusts 1.0 mph

Today
High -- | Low -- °F
--% Chance of Precip.
Yesterday
High -- | Low -- °F
Precip. -- in
6:47 AM 7:50 PM
Full, 99% visible
Pressure 30.18 in
Visibility 10.0 miles
Clouds Scattered Clouds 15000 ft
Mostly Cloudy 25000 ft
Heat Index 79 °F
Dew Point 66 °F
Humidity 69%
Rainfall 0.00 in
Snow Depth Not available.
UV 4 out of 12
Pollen 8.70 out of 12
Air Quality Not available.
Flu Activity Not available.
METAR KROA 301454Z 26004KT 10SM SCT150 BKN250 25/17 A3021 RMK AO2 SLP220 T02500172 51003
Pressure 30.18 in
Visibility 10.0 miles
Clouds Scattered Clouds 15000 ft
Mostly Cloudy 25000 ft
Heat Index 79 °F
Dew Point 66 °F
Humidity 69%
Rainfall 0.00 in
Snow Depth Not available.
UV 4 out of 12
Pollen 8.70 out of 12
Air Quality Not available.
Flu Activity Not available.
METAR KROA 301454Z 26004KT 10SM SCT150 BKN250 25/17 A3021 RMK AO2 SLP220 T02500172 51003

10-Day Weather Forecast

×

Almanac

Astronomy

Aug. 30, 2015 Rise Set
Actual Time
Civil Twilight
Nautical Twilight
Astronomical Twilight
Moon
Length of Visible Light
Length of Day
Tomorrow will be .
, % of the Moon is Illuminated

Today's Extremes

State Highs State Lows

Community

WunderPhotos

Upload Photos

1,850,997 photos uploaded!

WunderBlogs® & News

Nearby

Air Quality

  Air Quality AQ Index Pollutant
Not available.

Snow Depth

Station Depth Elevation

Earthquake Activity

City Distance Mag. Time & Date
Minimum magnitude displayed is 2.5.

Coastal Water Temperatures

Place Temperature

Stations

Nearby Weather Stations

Station Location Temp. Windchill Dew Point Humidity Wind Precip. Elev Updated Type